Time;durP1;ratioP1;P1;durP2;ratioP2;P2;SDS_P1;SDS_P2;PMS_P1;PMS_P2;Temp;Humidity;BMP_temperature;BMP_pressure;BME280_temperature;BME280_humidity;BME280_pressure;Samples;Min_cycle;Max_cycle;Signal;HPM_P1;HPM_P2
2023/08/08 00:02:20;;;;;;;9.70;6.40;;;;;;;25.91;43.74;99536.37;108110;1256;61767;-68
2023/08/08 00:04:49;;;;;;;10.00;6.60;;;;;;;26.10;43.33;99538.66;108107;1253;60042;-70
2023/08/08 00:07:17;;;;;;;8.90;6.30;;;;;;;26.02;43.48;99539.02;108090;1253;73852;-69
2023/08/08 00:09:44;;;;;;;9.90;6.50;;;;;;;25.87;43.83;99539.74;108089;1254;69999;-68
2023/08/08 00:12:12;;;;;;;10.60;6.20;;;;;;;26.01;43.47;99534.09;108083;1254;72672;-66
2023/08/08 00:14:39;;;;;;;9.40;6.30;;;;;;;25.74;43.84;99539.05;108106;1254;61628;-67
2023/08/08 00:17:07;;;;;;;8.70;7.00;;;;;;;25.47;44.50;99545.50;108321;1251;60417;-69
2023/08/08 00:19:34;;;;;;;8.60;5.90;;;;;;;25.32;44.86;99547.94;108305;1251;73045;-70
2023/08/08 00:22:02;;;;;;;6.60;5.60;;;;;;;25.38;44.89;99547.61;108276;1251;68794;-70
2023/08/08 00:24:29;;;;;;;10.10;6.60;;;;;;;25.31;45.03;99547.50;108218;1252;72712;-70
2023/08/08 00:26:56;;;;;;;8.00;6.80;;;;;;;25.33;44.95;99553.70;108237;1255;60372;-70
2023/08/08 00:29:24;;;;;;;10.80;7.20;;;;;;;25.44;44.77;99554.52;108160;1251;60414;-70
2023/08/08 00:31:51;;;;;;;12.70;7.60;;;;;;;25.50;44.51;99559.02;108187;1251;73817;-71
2023/08/08 00:34:18;;;;;;;10.60;6.30;;;;;;;25.60;44.52;99562.50;108291;1251;70269;-70
2023/08/08 00:36:46;;;;;;;9.10;7.10;;;;;;;25.34;44.65;99562.70;108206;1251;72451;-69
2023/08/08 00:39:13;;;;;;;10.70;7.50;;;;;;;25.12;44.96;99562.29;108208;1254;60575;-69
2023/08/08 00:41:41;;;;;;;15.10;7.80;;;;;;;25.24;45.09;99566.85;108317;1251;59985;-69
2023/08/08 00:44:08;;;;;;;8.40;6.60;;;;;;;25.29;44.95;99569.06;108363;1251;73797;-70
2023/08/08 00:46:35;;;;;;;8.40;6.00;;;;;;;25.47;44.64;99565.17;108356;1251;70561;-69
2023/08/08 00:49:03;;;;;;;10.30;7.10;;;;;;;25.46;44.57;99564.67;108337;1254;73525;-70
2023/08/08 00:51:31;;;;;;;10.30;6.60;;;;;;;25.46;44.54;99565.05;108207;1251;61683;-69
2023/08/08 00:53:58;;;;;;;10.90;6.80;;;;;;;25.39;44.93;99573.05;108266;1251;60306;-70
2023/08/08 00:56:25;;;;;;;12.30;7.30;;;;;;;25.36;44.90;99569.20;108060;1251;73000;-71
2023/08/08 00:58:54;;;;;;;9.30;6.00;;;;;;;25.15;45.14;99565.56;108273;1251;68286;-70
2023/08/08 01:01:21;;;;;;;8.40;7.50;;;;;;;25.15;45.34;99568.23;108121;1251;72677;-71
2023/08/08 01:03:49;;;;;;;8.20;7.40;;;;;;;25.06;45.40;99565.70;108274;1251;60460;-70
2023/08/08 01:06:36;;;;;;;10.30;7.00;;;;;;;25.46;44.92;99571.51;108184;1251;60286;-70
2023/08/08 01:09:06;;;;;;;12.60;7.80;;;;;;;25.08;45.90;99571.13;108178;1251;73885;-69
2023/08/08 01:11:34;;;;;;;10.40;7.90;;;;;;;25.10;46.04;99564.96;108213;1251;69528;-68
2023/08/08 01:14:02;;;;;;;9.10;7.30;;;;;;;25.20;45.90;99563.90;108167;1251;71992;-70
2023/08/08 01:16:29;;;;;;;10.40;8.10;;;;;;;25.29;45.78;99559.52;108137;1251;61642;-71
2023/08/08 01:18:57;;;;;;;9.40;7.30;;;;;;;25.39;45.41;99557.92;108170;1251;60658;-69
2023/08/08 01:21:25;;;;;;;9.80;8.10;;;;;;;25.24;45.81;99564.70;108206;1250;73763;-70
2023/08/08 01:23:56;;;;;;;10.10;7.20;;;;;;;25.22;45.49;99567.13;108276;1254;69243;-69
2023/08/08 01:26:23;;;;;;;10.50;7.50;;;;;;;25.32;45.12;99569.44;108200;1254;72642;-71
2023/08/08 01:28:54;;;;;;;12.50;7.60;;;;;;;25.23;45.14;99569.17;108255;1253;61655;-69
2023/08/08 01:31:23;;;;;;;8.10;6.80;;;;;;;24.98;45.57;99569.85;108087;1253;60248;-70
2023/08/08 01:33:50;;;;;;;13.60;7.50;;;;;;;25.01;45.69;99572.36;108180;1254;73827;-70
2023/08/08 01:36:25;;;;;;;9.40;6.80;;;;;;;25.13;45.22;99578.30;108058;1253;70744;-69
2023/08/08 01:38:52;;;;;;;10.80;6.60;;;;;;;25.13;45.15;99579.73;108109;1254;72732;-69
2023/08/08 01:41:20;;;;;;;8.70;7.20;;;;;;;25.13;45.26;99581.52;107859;1254;61689;-69
2023/08/08 01:43:47;;;;;;;8.50;7.20;;;;;;;24.99;45.39;99582.45;108104;1252;60312;-68
2023/08/08 01:46:14;;;;;;;10.90;7.10;;;;;;;25.02;45.36;99584.84;108028;1253;73799;-70
2023/08/08 01:48:45;;;;;;;11.20;7.00;;;;;;;24.87;45.63;99585.86;108062;1253;69987;-70
2023/08/08 01:51:13;;;;;;;;;;;;;;;24.96;45.57;99586.27;108165;1254;72677;-70
2023/08/08 01:53:40;;;;;;;11.00;7.30;;;;;;;24.89;45.78;99582.79;108118;1252;61502;-69
2023/08/08 01:56:08;;;;;;;10.80;7.60;;;;;;;24.84;45.87;99586.90;108169;1254;59361;-71
2023/08/08 01:58:36;;;;;;;12.30;6.70;;;;;;;24.86;45.94;99585.73;108142;1254;72644;-71
2023/08/08 02:01:04;;;;;;;12.20;7.40;;;;;;;24.89;45.73;99588.20;108124;1256;70476;-70
2023/08/08 02:03:32;;;;;;;10.20;7.40;;;;;;;24.83;45.80;99586.66;108162;1254;71849;-70
2023/08/08 02:05:59;;;;;;;11.80;8.50;;;;;;;24.74;46.15;99589.45;108161;1251;61715;-69
2023/08/08 02:08:27;;;;;;;13.20;8.30;;;;;;;24.77;45.82;99593.39;108213;1252;60262;-70
2023/08/08 02:10:54;;;;;;;8.30;6.80;;;;;;;24.65;45.84;99602.19;108019;1251;72528;-69
2023/08/08 02:13:21;;;;;;;14.50;10.00;;;;;;;24.55;46.10;99605.64;108107;1253;70015;-70
2023/08/08 02:15:49;;;;;;;11.30;9.30;;;;;;;24.58;45.84;99608.30;108149;1254;72445;-70
2023/08/08 02:18:16;;;;;;;11.80;8.40;;;;;;;24.43;46.33;99600.54;108142;1254;61644;-70
2023/08/08 02:20:44;;;;;;;14.90;10.00;;;;;;;24.28;46.72;99604.20;108152;1254;60298;-70
2023/08/08 02:23:11;;;;;;;14.30;8.80;;;;;;;24.25;46.71;99614.17;108034;1254;73819;-69
2023/08/08 02:25:39;;;;;;;14.70;10.30;;;;;;;24.32;46.68;99621.35;108250;1251;70728;-70
2023/08/08 02:28:06;;;;;;;12.90;10.10;;;;;;;24.44;46.32;99626.75;108146;1252;71426;-70
2023/08/08 02:30:34;;;;;;;13.70;10.30;;;;;;;24.56;46.10;99625.20;108249;1251;60900;-68
2023/08/08 02:33:01;;;;;;;20.30;15.20;;;;;;;24.37;46.56;99627.71;108272;1251;60420;-67
2023/08/08 02:35:29;;;;;;;20.70;12.70;;;;;;;24.09;47.00;99633.27;108235;1251;73860;-69
2023/08/08 02:37:57;;;;;;;22.60;15.10;;;;;;;24.15;46.83;99634.66;108280;1256;68782;-69
2023/08/08 02:40:24;;;;;;;34.40;21.60;;;;;;;24.06;47.13;99635.43;108237;1256;72657;-71
2023/08/08 02:42:52;;;;;;;23.10;15.30;;;;;;;24.12;47.16;99633.98;108230;1252;60439;-70
2023/08/08 02:45:19;;;;;;;32.90;21.40;;;;;;;24.23;47.14;99633.08;108211;1251;60348;-66
2023/08/08 02:47:47;;;;;;;31.90;22.90;;;;;;;24.50;46.34;99632.63;108351;1251;72807;-69
2023/08/08 02:50:15;;;;;;;32.50;20.80;;;;;;;24.48;46.57;99632.83;108208;1251;69141;-69
2023/08/08 02:52:43;;;;;;;35.30;24.10;;;;;;;24.70;46.05;99635.09;108267;1253;70405;-68
2023/08/08 02:55:11;;;;;;;30.10;22.30;;;;;;;24.71;45.94;99634.39;108117;1254;62254;-70
2023/08/08 02:57:39;;;;;;;31.90;20.90;;;;;;;24.62;46.14;99634.59;108180;1251;58680;-70
2023/08/08 03:00:08;;;;;;;28.10;20.20;;;;;;;24.47;46.47;99637.91;108239;1251;73809;-70
2023/08/08 03:02:37;;;;;;;17.60;13.20;;;;;;;24.53;46.62;99638.45;108231;1251;70216;-71
2023/08/08 03:05:05;;;;;;;26.30;16.90;;;;;;;24.12;47.48;99635.78;108186;1253;73249;-71
2023/08/08 03:07:33;;;;;;;24.50;17.30;;;;;;;24.43;46.83;99630.23;108197;1257;60347;-72
2023/08/08 03:10:01;;;;;;;20.80;14.60;;;;;;;24.36;46.91;99634.77;108324;1251;60325;-71
2023/08/08 03:12:29;;;;;;;27.60;18.10;;;;;;;24.25;47.16;99639.70;108214;1251;72917;-70
2023/08/08 03:14:56;;;;;;;18.00;13.00;;;;;;;24.48;47.18;99640.93;108173;1257;70043;-70
2023/08/08 03:17:24;;;;;;;22.70;15.30;;;;;;;24.72;47.02;99643.48;108227;1251;70811;-69
2023/08/08 03:19:51;;;;;;;23.10;14.00;;;;;;;24.96;46.58;99643.45;108171;1251;60615;-70
2023/08/08 03:22:19;;;;;;;19.60;12.60;;;;;;;25.05;46.70;99641.45;108252;1251;60416;-70
2023/08/08 03:24:47;;;;;;;19.90;13.00;;;;;;;25.07;46.93;99638.23;108095;1253;72988;-70
2023/08/08 03:27:14;;;;;;;16.00;11.80;;;;;;;25.14;46.66;99641.19;108124;1254;68929;-70
2023/08/08 03:29:42;;;;;;;15.00;10.70;;;;;;;25.26;47.23;99646.39;108109;1254;72968;-70
2023/08/08 03:32:09;;;;;;;13.30;9.80;;;;;;;25.66;47.17;99647.36;108075;1254;60808;-71
2023/08/08 03:34:36;;;;;;;11.40;8.70;;;;;;;26.52;45.62;99646.06;108126;1254;60408;-70
2023/08/08 03:37:05;;;;;;;10.90;9.00;;;;;;;27.27;44.61;99643.41;108148;1254;72923;-70
2023/08/08 03:39:33;;;;;;;10.40;7.50;;;;;;;27.77;42.24;99648.13;108045;1253;69427;-72
2023/08/08 03:42:00;;;;;;;12.10;7.30;;;;;;;28.23;40.89;99651.18;108154;1254;71802;-71
2023/08/08 03:44:29;;;;;;;14.40;7.30;;;;;;;28.58;40.44;99656.74;108182;1253;61650;-71
2023/08/08 03:46:56;;;;;;;12.70;7.50;;;;;;;29.09;39.31;99661.23;108199;1252;60154;-70
2023/08/08 03:49:40;;;;;;;9.60;6.70;;;;;;;29.60;38.58;99660.77;108148;1254;75511;-72
2023/08/08 03:52:07;;;;;;;8.10;5.70;;;;;;;29.71;38.33;99658.33;108176;1253;68844;-71
2023/08/08 03:54:35;;;;;;;7.90;5.60;;;;;;;30.19;37.02;99664.73;108094;1253;72720;-71
2023/08/08 03:57:02;;;;;;;9.00;5.50;;;;;;;30.36;36.76;99667.29;108190;1251;61923;-70
2023/08/08 03:59:30;;;;;;;8.10;5.20;;;;;;;30.58;36.05;99672.55;108156;1254;60531;-70
2023/08/08 04:01:57;;;;;;;10.20;5.10;;;;;;;30.72;35.75;99679.14;108166;1254;72629;-71
2023/08/08 04:04:24;;;;;;;9.50;4.50;;;;;;;30.78;35.76;99680.22;108100;1254;69289;-71
2023/08/08 04:06:52;;;;;;;7.80;4.30;;;;;;;30.92;35.39;99688.91;108281;1251;72386;-70
2023/08/08 04:09:19;;;;;;;6.70;4.30;;;;;;;31.27;35.13;99692.36;108309;1251;61620;-70
2023/08/08 04:11:46;;;;;;;8.20;4.10;;;;;;;31.25;34.41;99699.59;108291;1251;59210;-70
2023/08/08 04:14:14;;;;;;;5.80;4.10;;;;;;;31.28;33.97;99699.94;108326;1251;74340;-72
2023/08/08 04:16:41;;;;;;;7.90;3.80;;;;;;;31.43;34.20;99708.19;108338;1252;68695;-70
2023/08/08 04:19:09;;;;;;;5.10;3.50;;;;;;;31.44;33.70;99713.84;108334;1251;71583;-71
2023/08/08 04:21:36;;;;;;;6.70;3.80;;;;;;;31.62;33.64;99713.85;108307;1251;60468;-71
2023/08/08 04:24:05;;;;;;;6.60;4.30;;;;;;;31.94;33.34;99717.43;108333;1251;60079;-69
2023/08/08 04:28:28;;;;;;;4.70;3.30;;;;;;;29.78;37.17;99721.95;104967;1290;601161;-71
2023/08/08 04:30:55;;;;;;;6.80;3.40;;;;;;;31.44;34.05;99721.50;107375;1264;59643;-72
2023/08/08 04:33:22;;;;;;;10.70;2.90;;;;;;;31.88;33.64;99727.21;107359;1265;58836;-71
2023/08/08 04:35:50;;;;;;;3.60;2.60;;;;;;;32.30;33.18;99731.37;107803;1257;70834;-70
2023/08/08 04:38:17;;;;;;;5.10;2.50;;;;;;;32.58;32.24;99736.94;107861;1257;70267;-70
2023/08/08 04:40:45;;;;;;;5.30;2.50;;;;;;;32.88;31.41;99741.17;107733;1257;72880;-71
2023/08/08 04:43:12;;;;;;;4.00;2.20;;;;;;;33.13;30.98;99741.48;107593;1254;455491;-71
2023/08/08 04:45:40;;;;;;;3.10;2.10;;;;;;;33.35;30.43;99745.79;108077;1254;59940;-70
2023/08/08 04:48:07;;;;;;;4.80;2.20;;;;;;;33.12;30.78;99753.36;107975;1254;71848;-69
2023/08/08 04:50:35;;;;;;;3.90;2.00;;;;;;;33.17;30.38;99753.55;107976;1254;70545;-70
2023/08/08 04:53:02;;;;;;;3.20;2.00;;;;;;;33.24;30.29;99756.98;107984;1254;70854;-72
2023/08/08 04:55:30;;;;;;;2.60;1.70;;;;;;;33.20;30.26;99755.19;107951;1259;59762;-71
2023/08/08 04:57:57;;;;;;;3.60;1.80;;;;;;;33.55;29.77;99754.97;108027;1254;59837;-73
2023/08/08 05:00:26;;;;;;;1.50;1.40;;;;;;;33.65;29.49;99757.58;108027;1254;76444;-71
2023/08/08 05:02:53;;;;;;;1.80;1.50;;;;;;;33.85;29.29;99757.30;108062;1254;70066;-70
2023/08/08 05:05:21;;;;;;;8.00;1.70;;;;;;;33.91;29.37;99758.27;108053;1254;63709;-70
2023/08/08 05:07:48;;;;;;;3.10;1.60;;;;;;;33.86;28.87;99759.33;107927;1258;59548;-72
2023/08/08 05:10:16;;;;;;;3.00;1.50;;;;;;;33.86;28.67;99764.13;107920;1257;59538;-73
2023/08/08 05:12:44;;;;;;;3.80;1.40;;;;;;;33.76;29.10;99759.68;107902;1257;71711;-71
2023/08/08 05:15:12;;;;;;;1.80;1.40;;;;;;;33.68;29.16;99763.00;108015;1257;71123;-70
2023/08/08 05:17:39;;;;;;;1.30;1.10;;;;;;;33.98;28.92;99763.86;107933;1258;65764;-70
2023/08/08 05:20:08;;;;;;;2.40;1.40;;;;;;;34.23;28.60;99764.50;107883;1261;59522;-72
2023/08/08 05:22:36;;;;;;;2.80;1.40;;;;;;;34.49;28.38;99763.23;107855;1256;59599;-70
2023/08/08 05:25:04;;;;;;;3.60;1.20;;;;;;;34.85;28.23;99761.11;107862;1257;64042;-71
2023/08/08 05:27:32;;;;;;;1.40;1.20;;;;;;;35.35;27.63;99757.02;107774;1260;61460;-71
2023/08/08 05:29:59;;;;;;;1.90;1.20;;;;;;;35.79;26.88;99761.60;107727;1260;62565;-70
2023/08/08 05:32:26;;;;;;;1.20;1.00;;;;;;;36.18;26.64;99761.21;107814;1257;60388;-73
2023/08/08 05:34:55;;;;;;;2.20;1.40;;;;;;;36.26;25.97;99764.39;107703;1260;59568;-72
2023/08/08 05:37:23;;;;;;;1.20;1.10;;;;;;;36.31;26.06;99767.42;107715;1258;63974;-72
2023/08/08 05:39:52;;;;;;;4.10;1.50;;;;;;;36.44;26.08;99770.40;107715;1260;61350;-71
2023/08/08 05:42:19;;;;;;;2.40;1.20;;;;;;;36.45;25.74;99770.08;107749;1260;62553;-71
2023/08/08 05:44:47;;;;;;;1.50;1.00;;;;;;;36.57;25.47;99771.05;107651;1262;59131;-72
2023/08/08 05:47:14;;;;;;;1.90;1.40;;;;;;;36.75;25.41;99772.07;107667;1259;59076;-71
2023/08/08 05:49:42;;;;;;;2.20;1.00;;;;;;;36.99;24.93;99775.25;107782;1260;62838;-70
2023/08/08 05:52:10;;;;;;;1.70;1.00;;;;;;;37.55;24.30;99774.30;107621;1260;61325;-71
2023/08/08 05:54:38;;;;;;;1.20;1.00;;;;;;;37.71;24.36;99775.96;107702;1260;63901;-72
2023/08/08 05:57:06;;;;;;;2.10;1.10;;;;;;;38.09;23.61;99783.52;107666;1258;59129;-69
2023/08/08 05:59:33;;;;;;;2.00;1.10;;;;;;;38.10;23.37;99782.40;107658;1258;59544;-69
2023/08/08 06:02:01;;;;;;;1.60;1.10;;;;;;;38.13;23.53;99775.66;107637;1259;64565;-71
2023/08/08 06:04:29;;;;;;;2.50;1.00;;;;;;;38.19;23.29;99775.60;107605;1259;60527;-72
2023/08/08 06:06:56;;;;;;;1.70;1.20;;;;;;;37.99;23.42;99777.55;107678;1260;62736;-71
2023/08/08 06:09:24;;;;;;;2.20;1.00;;;;;;;37.55;23.95;99778.67;107727;1259;59651;-73
2023/08/08 06:11:52;;;;;;;1.90;1.20;;;;;;;37.34;24.46;99780.98;107683;1262;59112;-71
2023/08/08 06:14:19;;;;;;;1.40;1.30;;;;;;;37.10;24.69;99780.42;107683;1260;64118;-70
2023/08/08 06:16:46;;;;;;;1.60;1.10;;;;;;;37.01;25.00;99777.79;107645;1260;61344;-73
2023/08/08 06:19:15;;;;;;;2.50;1.30;;;;;;;36.77;24.90;99775.14;107698;1260;63902;-73
2023/08/08 06:21:43;;;;;;;2.00;1.40;;;;;;;36.38;25.17;99778.45;107626;1260;59453;-71
2023/08/08 06:24:10;;;;;;;2.20;1.20;;;;;;;35.76;26.32;99778.41;107658;1260;59557;-70
2023/08/08 06:26:38;;;;;;;1.80;1.20;;;;;;;35.20;26.73;99777.55;107567;1257;62883;-71
2023/08/08 06:29:05;;;;;;;4.50;1.00;;;;;;;35.15;26.90;99778.48;107656;1257;60266;-71
2023/08/08 06:31:33;;;;;;;2.80;1.30;;;;;;;34.89;27.16;99780.50;107681;1260;64158;-71
2023/08/08 06:34:01;;;;;;;2.60;1.40;;;;;;;34.86;27.16;99780.02;107666;1257;59604;-73
2023/08/08 06:36:28;;;;;;;1.90;1.40;;;;;;;34.87;27.05;99781.98;107657;1257;59388;-72
2023/08/08 06:38:56;;;;;;;3.60;1.30;;;;;;;35.01;27.12;99784.46;107691;1258;64148;-71
2023/08/08 06:41:23;;;;;;;2.30;1.40;;;;;;;34.83;26.99;99785.80;107730;1257;61537;-72
2023/08/08 06:43:51;;;;;;;3.40;1.40;;;;;;;34.88;27.31;99786.13;107696;1260;62443;-71
2023/08/08 06:46:20;;;;;;;2.70;1.40;;;;;;;35.25;27.00;99791.45;107666;1257;59639;-71
2023/08/08 06:48:48;;;;;;;2.50;1.30;;;;;;;35.68;27.32;99795.15;107680;1258;59529;-71
2023/08/08 06:51:15;;;;;;;1.80;1.10;;;;;;;36.07;25.89;99794.74;107681;1257;64038;-71
2023/08/08 06:53:43;;;;;;;1.70;1.00;;;;;;;36.41;25.51;99792.58;107676;1257;61376;-70
2023/08/08 06:56:10;;;;;;;3.80;0.90;;;;;;;36.77;24.87;99795.04;107633;1262;63826;-71
2023/08/08 06:58:38;;;;;;;3.60;1.00;;;;;;;37.06;24.18;99797.62;107689;1257;59628;-73
2023/08/08 07:01:05;;;;;;;1.60;0.90;;;;;;;37.42;24.31;99802.95;107692;1257;59696;-71
2023/08/08 07:03:33;;;;;;;3.40;1.10;;;;;;;38.05;23.47;99808.45;107734;1261;64174;-71
2023/08/08 07:06:01;;;;;;;1.80;1.00;;;;;;;38.18;22.95;99811.54;107728;1257;61464;-71
2023/08/08 07:08:29;;;;;;;2.50;0.80;;;;;;;38.05;22.66;99817.05;107752;1260;63852;-71
2023/08/08 07:10:57;;;;;;;1.50;1.10;;;;;;;37.97;22.44;99810.08;107733;1258;61004;-71
2023/08/08 07:13:24;;;;;;;2.60;0.90;;;;;;;38.33;22.27;99810.05;107703;1257;59567;-72
2023/08/08 07:15:52;;;;;;;1.40;0.80;;;;;;;38.42;22.12;99808.52;107666;1257;63387;-71
2023/08/08 07:18:19;;;;;;;1.30;0.90;;;;;;;38.78;21.59;99810.52;107694;1257;60932;-73
2023/08/08 07:20:46;;;;;;;3.60;0.80;;;;;;;38.55;21.19;99808.83;107756;1261;62497;-71
2023/08/08 07:23:14;;;;;;;1.00;0.60;;;;;;;38.82;21.21;99808.73;107793;1257;59118;-71
2023/08/08 07:25:42;;;;;;;1.60;0.70;;;;;;;39.17;21.18;99813.41;107841;1256;59388;-72
2023/08/08 07:28:10;;;;;;;2.50;0.80;;;;;;;39.24;20.86;99816.05;107934;1260;64181;-72
2023/08/08 07:30:37;;;;;;;1.10;0.80;;;;;;;39.50;20.96;99817.59;107853;1257;61585;-72
2023/08/08 07:33:04;;;;;;;1.60;0.80;;;;;;;40.22;20.52;99815.48;107851;1260;63724;-72
2023/08/08 07:35:33;;;;;;;3.20;1.00;;;;;;;40.27;19.94;99813.35;107811;1257;59631;-70
2023/08/08 07:38:00;;;;;;;3.00;1.10;;;;;;;40.14;20.18;99815.30;107846;1257;59381;-70
2023/08/08 07:40:28;;;;;;;1.20;0.90;;;;;;;40.00;20.32;99811.23;107818;1257;64166;-72
2023/08/08 07:42:56;;;;;;;1.40;0.80;;;;;;;39.84;20.32;99812.52;107781;1261;61356;-71
2023/08/08 07:45:24;;;;;;;1.20;0.90;;;;;;;39.98;20.35;99813.19;107633;1257;63777;-72
2023/08/08 07:47:51;;;;;;;3.80;0.90;;;;;;;40.31;20.11;99813.95;107714;1257;60029;-71
2023/08/08 07:50:18;;;;;;;1.90;0.90;;;;;;;40.40;19.86;99815.43;107790;1261;59557;-71
2023/08/08 07:52:46;;;;;;;2.10;0.70;;;;;;;40.43;19.87;99809.17;107666;1257;62809;-71
2023/08/08 07:55:13;;;;;;;1.30;0.80;;;;;;;40.49;19.02;99805.08;107738;1257;60912;-72
2023/08/08 07:57:41;;;;;;;1.70;0.60;;;;;;;40.82;18.82;99804.10;107716;1258;63059;-71
2023/08/08 08:00:12;;;;;;;2.80;0.70;;;;;;;40.81;19.06;99813.65;107726;1257;59595;-71
2023/08/08 08:02:41;;;;;;;0.70;0.60;;;;;;;40.95;19.29;99809.35;107792;1257;59006;-73
2023/08/08 08:05:09;;;;;;;5.90;0.70;;;;;;;41.21;19.11;99802.80;107785;1258;64158;-73
2023/08/08 08:07:37;;;;;;;2.80;0.90;;;;;;;41.01;18.80;99800.09;107791;1256;60230;-73
2023/08/08 08:10:08;;;;;;;4.30;1.00;;;;;;;40.46;19.11;99800.13;107738;1256;63759;-71
2023/08/08 08:12:36;;;;;;;2.20;0.70;;;;;;;39.99;19.58;99804.53;107748;1257;59712;-72
2023/08/08 08:15:04;;;;;;;1.40;0.70;;;;;;;39.27;19.81;99810.30;107809;1258;59496;-73
2023/08/08 08:17:32;;;;;;;1.90;0.90;;;;;;;39.09;20.00;99805.64;107824;1257;64123;-72
2023/08/08 08:20:00;;;;;;;3.10;0.90;;;;;;;39.45;20.13;99808.38;107863;1256;61680;-73
2023/08/08 08:22:27;;;;;;;2.10;1.10;;;;;;;39.14;20.05;99809.68;107815;1257;63759;-72
2023/08/08 08:24:54;;;;;;;1.70;0.80;;;;;;;39.14;20.25;99805.81;107804;1257;59589;-73
2023/08/08 08:27:22;;;;;;;2.70;1.00;;;;;;;39.42;20.06;99806.73;107834;1257;59480;-73
2023/08/08 08:29:49;;;;;;;6.30;0.90;;;;;;;39.69;19.59;99806.34;107878;1257;62826;-72
2023/08/08 08:32:17;;;;;;;3.60;1.00;;;;;;;39.48;19.62;99799.21;107860;1257;62317;-72
2023/08/08 08:34:44;;;;;;;2.20;0.60;;;;;;;39.03;19.41;99793.66;107883;1257;63777;-72
2023/08/08 08:37:12;;;;;;;2.70;0.70;;;;;;;38.54;19.67;99800.05;107886;1258;60290;-72
2023/08/08 08:39:39;;;;;;;3.90;1.60;;;;;;;38.55;20.03;99801.98;107895;1257;59604;-72
2023/08/08 08:42:07;;;;;;;1.00;0.80;;;;;;;38.48;19.77;99803.45;107869;1255;63704;-72
2023/08/08 08:44:35;;;;;;;3.60;1.00;;;;;;;39.07;19.28;99807.70;107678;1257;60339;-73
2023/08/08 08:47:05;;;;;;;1.70;0.70;;;;;;;39.08;19.40;99800.92;107875;1259;64350;-74
2023/08/08 08:49:32;;;;;;;1.60;0.60;;;;;;;38.74;19.69;99799.28;107920;1257;60287;-72
2023/08/08 08:52:00;;;;;;;2.80;1.10;;;;;;;38.65;20.16;99798.53;107647;1257;60194;-70
2023/08/08 08:54:29;;;;;;;1.90;1.00;;;;;;;39.14;20.13;99793.08;107877;1262;65024;-72
2023/08/08 08:56:57;;;;;;;2.40;1.00;;;;;;;39.30;19.85;99789.14;107638;1257;61358;-71
2023/08/08 08:59:25;;;;;;;1.60;1.10;;;;;;;39.48;19.63;99793.48;107958;1256;63744;-73
2023/08/08 09:01:53;;;;;;;2.70;1.40;;;;;;;39.59;19.29;99794.06;107789;1255;60466;-73
2023/08/08 09:04:21;;;;;;;2.20;0.90;;;;;;;39.10;19.48;99798.05;107943;1257;60533;-71
2023/08/08 09:06:52;;;;;;;2.00;0.90;;;;;;;39.22;19.73;99791.94;107947;1260;63876;-72
2023/08/08 09:09:22;;;;;;;2.60;0.90;;;;;;;39.64;19.36;99796.42;107855;1257;61372;-71
2023/08/08 09:11:53;;;;;;;2.20;1.00;;;;;;;40.05;19.17;99796.00;107898;1258;63756;-73
2023/08/08 09:14:21;;;;;;;;;;;;;;;39.97;18.65;99792.71;107915;1258;60786;-73
2023/08/08 09:16:49;;;;;;;2.70;1.10;;;;;;;39.83;19.11;99790.68;107920;1260;59222;-72
2023/08/08 09:19:20;;;;;;;3.80;1.10;;;;;;;39.43;19.50;99794.67;107899;1257;64943;-72
2023/08/08 09:21:48;;;;;;;2.50;0.90;;;;;;;39.27;19.82;99789.65;107916;1258;61514;-72
2023/08/08 09:24:15;;;;;;;4.00;1.20;;;;;;;39.33;20.04;99791.45;107901;1260;63675;-72
2023/08/08 09:26:43;;;;;;;1.30;1.00;;;;;;;39.55;19.99;99793.85;107856;1257;59103;-71
2023/08/08 09:29:14;;;;;;;2.90;1.10;;;;;;;39.81;19.96;99790.48;107929;1258;60454;-72
2023/08/08 09:31:42;;;;;;;3.10;1.30;;;;;;;40.03;19.72;99786.52;107970;1256;65126;-72
2023/08/08 09:34:10;;;;;;;1.80;0.90;;;;;;;39.82;18.85;99791.93;107791;1257;61542;-74
2023/08/08 09:36:37;;;;;;;1.40;0.60;;;;;;;39.35;19.03;99797.42;107925;1257;62504;-72
2023/08/08 09:39:04;;;;;;;2.30;0.70;;;;;;;39.00;19.11;99788.49;107860;1257;60316;-72
2023/08/08 09:41:33;;;;;;;5.10;1.00;;;;;;;39.32;19.15;99784.66;107921;1257;60367;-73
2023/08/08 09:44:00;;;;;;;1.30;0.70;;;;;;;39.33;19.43;99788.90;107881;1261;65123;-72
2023/08/08 09:46:29;;;;;;;1.10;0.60;;;;;;;39.06;19.43;99789.52;107903;1260;61304;-71
2023/08/08 09:48:57;;;;;;;2.30;0.90;;;;;;;38.90;19.69;99793.08;107990;1257;64839;-72
2023/08/08 09:51:26;;;;;;;6.30;1.00;;;;;;;38.97;20.06;99798.52;108006;1257;60371;-72
2023/08/08 09:53:55;;;;;;;3.40;0.90;;;;;;;39.33;20.17;99798.50;107915;1256;58748;-71
2023/08/08 09:56:24;;;;;;;1.60;0.80;;;;;;;39.82;19.48;99797.39;107917;1257;67018;-71
2023/08/08 09:58:52;;;;;;;2.90;1.00;;;;;;;39.75;18.84;99801.36;108023;1257;60540;-73
2023/08/08 10:01:20;;;;;;;2.10;1.20;;;;;;;39.49;18.78;99807.42;108005;1257;62494;-71
2023/08/08 10:03:49;;;;;;;1.40;0.80;;;;;;;39.58;18.95;99806.62;107893;1257;60331;-71
2023/08/08 10:06:16;;;;;;;2.00;0.80;;;;;;;39.63;18.77;99802.94;107885;1257;60423;-72
2023/08/08 10:08:44;;;;;;;1.30;0.70;;;;;;;39.33;19.21;99803.46;108181;1254;63634;-72
2023/08/08 10:11:12;;;;;;;2.80;0.90;;;;;;;39.22;19.31;99803.63;107996;1253;62664;-72
2023/08/08 10:13:47;;;;;;;2.40;1.00;;;;;;;39.46;19.42;99804.41;108152;1254;62492;-73
2023/08/08 10:16:18;;;;;;;1.70;0.90;;;;;;;39.50;19.16;99804.98;108235;1255;60437;-74
2023/08/08 10:18:52;;;;;;;1.20;0.90;;;;;;;39.51;19.43;99806.82;108178;1254;60361;-71
2023/08/08 10:21:20;;;;;;;3.80;0.80;;;;;;;39.38;19.25;99811.91;107964;1261;64951;-73
2023/08/08 10:23:49;;;;;;;2.70;1.20;;;;;;;39.20;19.69;99812.80;107896;1254;61583;-72
2023/08/08 10:26:18;;;;;;;1.60;0.90;;;;;;;39.21;19.44;99815.95;108020;1257;63755;-72
2023/08/08 10:28:53;;;;;;;1.20;0.60;;;;;;;39.10;19.69;99810.05;108126;1254;60819;-71
2023/08/08 10:31:24;;;;;;;1.00;0.80;;;;;;;39.23;19.57;99806.45;108163;1252;60555;-71
2023/08/08 10:34:01;;;;;;;1.90;1.00;;;;;;;38.86;19.74;99797.83;108187;1253;65022;-72
2023/08/08 10:36:43;;;;;;;1.50;1.00;;;;;;;38.54;20.27;99801.70;108077;1259;60511;-72
2023/08/08 10:39:16;;;;;;;4.20;0.90;;;;;;;38.42;20.46;99797.51;108168;1254;75302;-71
2023/08/08 10:41:45;;;;;;;1.80;0.90;;;;;;;38.47;20.45;99803.71;108154;1254;60569;-73
2023/08/08 10:44:13;;;;;;;1.10;1.00;;;;;;;38.22;20.42;99806.66;108129;1253;60446;-73
2023/08/08 10:46:41;;;;;;;3.80;1.50;;;;;;;38.07;20.43;99802.42;108159;1257;65068;-72
2023/08/08 10:49:10;;;;;;;0.90;0.70;;;;;;;37.99;20.45;99798.44;108116;1257;61559;-72
2023/08/08 10:51:39;;;;;;;2.30;0.80;;;;;;;37.81;20.73;99795.11;107945;1257;63685;-73
2023/08/08 10:54:11;;;;;;;4.10;1.10;;;;;;;37.36;20.91;99800.11;108223;1254;60404;-72
2023/08/08 10:56:39;;;;;;;3.30;1.00;;;;;;;36.89;21.42;99803.75;108131;1255;60771;-72
2023/08/08 10:59:20;;;;;;;1.50;1.00;;;;;;;36.77;21.77;99802.13;108189;1257;64878;-73
2023/08/08 11:01:51;;;;;;;1.60;1.00;;;;;;;36.47;22.21;99807.61;108214;1254;71452;-71
2023/08/08 11:04:19;;;;;;;4.20;1.10;;;;;;;36.73;22.48;99808.95;108238;1254;74857;-72
2023/08/08 11:06:49;;;;;;;1.20;0.80;;;;;;;36.62;22.34;99804.80;108186;1254;60317;-73
2023/08/08 11:09:17;;;;;;;2.70;1.10;;;;;;;36.56;22.31;99800.25;108063;1254;59489;-71
2023/08/08 11:11:45;;;;;;;1.80;0.80;;;;;;;36.73;22.40;99801.30;108158;1255;64941;-72
2023/08/08 11:14:17;;;;;;;6.40;1.00;;;;;;;36.94;21.90;99798.60;108145;1255;61342;-72
2023/08/08 11:16:46;;;;;;;1.80;0.80;;;;;;;36.36;22.54;99803.84;108139;1254;62486;-72
2023/08/08 11:19:14;;;;;;;2.50;1.10;;;;;;;36.21;22.34;99805.00;108219;1253;60785;-72
2023/08/08 11:21:44;;;;;;;3.30;0.80;;;;;;;36.21;21.75;99808.34;108202;1254;60424;-73
2023/08/08 11:24:11;;;;;;;0.70;0.70;;;;;;;36.30;21.99;99808.08;108218;1254;64981;-72
2023/08/08 11:26:40;;;;;;;3.80;0.80;;;;;;;36.51;21.76;99807.98;108184;1257;60555;-72
2023/08/08 11:29:08;;;;;;;1.00;0.60;;;;;;;36.38;21.82;99807.19;108164;1254;63697;-71